createdAt,value
2023-11-01T07:26:26.287Z,12.88
2023-11-01T07:28:54.816Z,11.20
2023-11-01T07:31:26.510Z,14.10
2023-11-01T07:33:55.184Z,12.93
2023-11-01T07:36:23.719Z,13.80
2023-11-01T07:38:52.353Z,11.00
2023-11-01T07:41:20.837Z,10.82
2023-11-01T07:43:49.335Z,12.48
2023-11-01T07:46:17.836Z,10.27
2023-11-01T07:48:46.377Z,11.13
2023-11-01T07:51:14.794Z,12.10
2023-11-01T07:53:43.241Z,11.25
2023-11-01T07:56:11.940Z,10.63
2023-11-01T07:58:40.495Z,10.40
2023-11-01T08:01:08.933Z,12.70
2023-11-01T08:03:39.125Z,13.75
2023-11-01T08:08:03.878Z,11.88
2023-11-01T08:10:32.433Z,11.20
2023-11-01T08:13:01.638Z,14.05
2023-11-01T08:15:30.064Z,13.13
2023-11-01T08:17:58.625Z,12.60
2023-11-01T08:20:27.320Z,10.15
2023-11-01T08:22:55.614Z,13.38
2023-11-01T08:25:24.600Z,11.82
2023-11-01T08:27:53.336Z,11.65
2023-11-01T08:30:21.986Z,8.98
2023-11-01T08:32:52.741Z,8.13
2023-11-01T08:35:21.477Z,9.70
2023-11-01T08:37:50.384Z,9.77
2023-11-01T08:40:19.235Z,8.73
2023-11-01T08:42:47.766Z,10.40
2023-11-01T08:45:16.481Z,9.45
2023-11-01T08:47:45.771Z,9.95
2023-11-01T08:50:15.410Z,8.27
2023-11-01T08:52:45.625Z,9.55
2023-11-01T08:55:17.585Z,9.13
2023-11-01T09:00:15.237Z,9.65
2023-11-01T09:02:44.118Z,10.48
2023-11-01T09:05:12.818Z,11.63
2023-11-01T09:07:42.158Z,9.45
2023-11-01T09:10:10.974Z,9.73
2023-11-01T09:12:39.373Z,10.32
2023-11-01T09:15:08.697Z,13.30
2023-11-01T09:17:37.224Z,10.52
2023-11-01T09:20:06.057Z,12.13
2023-11-01T09:22:35.379Z,13.23
2023-11-01T09:25:04.498Z,12.05
2023-11-01T09:27:32.977Z,14.15
2023-11-01T09:30:01.765Z,10.65
2023-11-01T09:32:30.681Z,12.65
2023-11-01T09:34:59.352Z,13.32
2023-11-01T09:37:27.746Z,12.68
2023-11-01T09:39:56.417Z,12.32
2023-11-01T09:42:24.973Z,11.68
2023-11-01T09:44:57.915Z,11.43
2023-11-01T09:47:30.471Z,10.35
2023-11-01T09:49:59.304Z,26.92
2023-11-01T09:52:27.877Z,25.15
2023-11-01T09:54:56.355Z,16.95
2023-11-01T09:57:27.278Z,9.52
2023-11-01T09:59:56.694Z,8.40
2023-11-01T10:02:25.951Z,8.25
2023-11-01T10:04:55.191Z,9.75
2023-11-01T10:07:31.137Z,9.95
2023-11-01T10:09:59.724Z,10.02
2023-11-01T10:12:28.248Z,9.73
2023-11-01T10:14:56.889Z,9.45
2023-11-01T10:17:25.932Z,8.82
2023-11-01T10:19:54.400Z,8.13
2023-11-01T10:22:22.927Z,7.78
2023-11-01T10:24:51.353Z,7.45
2023-11-01T10:27:19.996Z,9.45
2023-11-01T10:29:48.893Z,6.75
2023-11-01T10:32:17.718Z,8.35
2023-11-01T10:34:46.274Z,7.05
2023-11-01T10:37:19.168Z,7.85
2023-11-01T10:41:12.480Z,7.80
2023-11-01T10:43:41.047Z,7.55
2023-11-01T10:46:10.398Z,7.95
2023-11-01T10:48:38.778Z,6.50
2023-11-01T10:51:07.975Z,8.43
2023-11-01T10:53:37.492Z,8.88
2023-11-01T10:56:06.903Z,7.38
2023-11-01T10:58:41.715Z,6.63
2023-11-01T11:01:24.894Z,5.72
2023-11-01T11:04:04.297Z,6.38
2023-11-01T11:06:49.726Z,6.20
2023-11-01T11:09:23.130Z,6.00
2023-11-01T11:12:17.164Z,8.82
2023-11-01T11:14:48.679Z,8.13
2023-11-01T11:17:19.119Z,7.57
2023-11-01T11:20:15.947Z,7.25
2023-11-01T11:23:02.790Z,9.55
2023-11-01T11:25:40.320Z,9.45
2023-11-01T11:28:34.798Z,13.70
2023-11-01T11:31:11.152Z,13.77
2023-11-01T11:33:48.522Z,12.45
2023-11-01T11:36:27.080Z,11.50
2023-11-01T11:39:00.109Z,10.80
2023-11-01T11:41:29.815Z,10.75
2023-11-01T11:44:18.117Z,9.80
2023-11-01T11:46:52.750Z,9.90
2023-11-01T11:49:21.162Z,9.57
2023-11-01T11:52:10.087Z,10.40
2023-11-01T11:54:39.076Z,11.35
2023-11-01T11:57:12.758Z,11.00
2023-11-01T11:59:42.174Z,12.68
2023-11-01T12:02:15.532Z,9.38
2023-11-01T12:04:46.390Z,8.57
2023-11-01T12:07:15.064Z,8.83
2023-11-01T12:09:49.208Z,9.80
2023-11-01T12:12:17.733Z,9.52
2023-11-01T12:14:46.328Z,8.48
2023-11-01T12:17:14.829Z,8.70
2023-11-01T12:19:49.349Z,8.13
2023-11-01T12:22:17.811Z,8.43
2023-11-01T12:24:46.755Z,9.38
2023-11-01T12:27:19.139Z,7.32
2023-11-01T12:29:48.650Z,8.88
2023-11-01T12:32:17.936Z,10.23
2023-11-01T12:34:52.567Z,9.45
2023-11-01T12:37:22.866Z,8.15
2023-11-01T12:40:15.485Z,7.95
2023-11-01T12:42:48.669Z,9.27
2023-11-01T12:45:18.813Z,9.18
2023-11-01T12:47:51.451Z,9.75
2023-11-01T12:50:26.205Z,9.23
2023-11-01T12:52:55.011Z,8.75
2023-11-01T12:55:23.598Z,9.30
2023-11-01T12:57:53.950Z,8.77
2023-11-01T13:00:23.222Z,8.55
2023-11-01T13:02:52.462Z,9.55
2023-11-01T13:05:21.027Z,9.65
2023-11-01T13:07:49.554Z,7.75
2023-11-01T13:10:18.289Z,9.35
2023-11-01T13:12:48.210Z,9.23
2023-11-01T13:15:17.920Z,8.38
2023-11-01T13:17:47.884Z,7.40
2023-11-01T13:20:16.461Z,7.25
2023-11-01T13:22:44.877Z,7.50
2023-11-01T13:25:13.372Z,8.90
2023-11-01T13:27:41.960Z,9.30
2023-11-01T13:30:10.914Z,8.57
2023-11-01T13:32:39.672Z,6.63
2023-11-01T13:35:08.455Z,7.85
2023-11-01T13:37:36.867Z,8.48
2023-11-01T13:40:05.732Z,7.07
2023-11-01T13:42:34.579Z,6.05
2023-11-01T13:45:03.118Z,5.80
2023-11-01T13:47:32.846Z,6.82
2023-11-01T13:50:01.637Z,7.13
2023-11-01T13:52:30.121Z,6.05
2023-11-01T13:54:58.742Z,6.10
2023-11-01T13:57:27.236Z,7.00
2023-11-01T13:59:55.744Z,5.53
2023-11-01T14:02:24.346Z,6.68
2023-11-01T14:04:52.760Z,6.05
2023-11-01T14:07:21.183Z,6.78
2023-11-01T14:09:49.896Z,5.78
2023-11-01T14:12:18.598Z,5.22
2023-11-01T14:14:47.184Z,6.68
2023-11-01T14:17:15.609Z,5.60
2023-11-01T14:19:44.157Z,5.60
2023-11-01T14:22:12.435Z,8.80
2023-11-01T14:24:40.977Z,6.40
2023-11-01T14:27:09.619Z,5.25
2023-11-01T14:29:38.219Z,8.73
2023-11-01T14:32:07.229Z,6.35
2023-11-01T14:34:35.868Z,5.68
2023-11-01T14:37:04.896Z,7.40
2023-11-01T14:39:35.359Z,9.48
2023-11-01T14:42:04.006Z,8.25
2023-11-01T14:44:32.603Z,9.13
2023-11-01T14:47:01.105Z,6.75
2023-11-01T14:49:29.793Z,7.20
2023-11-01T14:51:58.264Z,6.05
2023-11-01T14:54:27.244Z,5.57
2023-11-01T14:56:55.886Z,5.55
2023-11-01T14:59:24.616Z,4.85
2023-11-01T15:01:53.195Z,5.40
2023-11-01T15:04:22.131Z,5.03
2023-11-01T15:06:51.411Z,4.57
2023-11-01T15:09:19.890Z,5.68
2023-11-01T15:11:50.009Z,5.72
2023-11-01T15:14:18.723Z,5.15
2023-11-01T15:16:47.168Z,5.20
2023-11-01T15:19:15.831Z,4.60
2023-11-01T15:21:45.015Z,6.63
2023-11-01T15:24:16.206Z,6.63
2023-11-01T15:26:45.385Z,8.40
2023-11-01T15:29:13.952Z,8.23
2023-11-01T15:31:42.716Z,5.90
2023-11-01T15:34:11.545Z,7.28
2023-11-01T15:36:40.205Z,5.70
2023-11-01T15:39:08.711Z,5.47
2023-11-01T15:41:39.017Z,5.18
2023-11-01T15:44:10.831Z,5.25
2023-11-01T15:46:41.471Z,6.40
2023-11-01T15:49:10.805Z,6.65
2023-11-01T15:51:39.577Z,6.25
2023-11-01T15:54:08.344Z,5.95
2023-11-01T15:56:40.500Z,6.55
2023-11-01T15:59:09.624Z,5.53
2023-11-01T16:01:38.074Z,4.88
2023-11-01T16:04:08.347Z,4.45
2023-11-01T16:06:37.419Z,5.38
2023-11-01T16:09:05.988Z,5.15
2023-11-01T16:11:34.789Z,4.32
2023-11-01T16:14:03.551Z,5.00
2023-11-01T16:16:32.395Z,5.18
2023-11-01T16:19:00.781Z,5.03
2023-11-01T16:21:30.667Z,5.20
2023-11-01T16:23:59.258Z,4.78
2023-11-01T16:26:27.906Z,5.95
2023-11-01T16:28:56.390Z,5.85
2023-11-01T16:31:24.879Z,5.68
2023-11-01T16:33:56.387Z,4.57
2023-11-01T16:36:25.148Z,6.05
2023-11-01T16:38:53.942Z,7.28
2023-11-01T16:41:22.436Z,5.75
2023-11-01T16:43:50.981Z,4.25
2023-11-01T16:46:19.319Z,5.07
2023-11-01T16:48:48.986Z,4.53
2023-11-01T16:51:18.013Z,4.85
2023-11-01T16:53:46.454Z,5.00
2023-11-01T16:56:15.027Z,6.03
2023-11-01T16:58:43.542Z,5.45
2023-11-01T17:01:11.923Z,6.68
2023-11-01T17:03:42.191Z,4.63
2023-11-01T17:06:10.784Z,5.38
2023-11-01T17:08:39.643Z,4.53
2023-11-01T17:11:12.885Z,4.97
2023-11-01T17:13:41.814Z,5.78
2023-11-01T17:16:10.264Z,4.38
2023-11-01T17:18:39.783Z,4.47
2023-11-01T17:21:08.809Z,5.50
2023-11-01T17:23:41.000Z,5.38
2023-11-01T17:26:29.097Z,6.90
2023-11-01T17:29:01.378Z,8.38
2023-11-01T17:31:47.800Z,5.10
2023-11-01T17:34:31.735Z,7.53
2023-11-01T17:37:02.147Z,9.48
2023-11-01T17:39:40.018Z,9.45
2023-11-01T17:42:11.533Z,9.40
2023-11-01T17:44:40.085Z,7.80
2023-11-01T17:47:11.029Z,9.30
2023-11-01T17:49:48.560Z,6.55
2023-11-01T17:52:28.468Z,6.82
2023-11-01T17:54:57.923Z,7.05
2023-11-01T17:57:26.689Z,7.75
2023-11-01T17:59:56.469Z,5.65
2023-11-01T18:02:34.003Z,6.32
2023-11-01T18:05:02.949Z,5.40
2023-11-01T18:07:31.247Z,7.60
2023-11-01T18:09:59.687Z,7.57
2023-11-01T18:14:44.099Z,8.27
2023-11-01T18:17:12.921Z,7.55
2023-11-01T18:19:42.191Z,5.57
2023-11-01T18:22:41.556Z,5.90
2023-11-01T18:25:54.601Z,6.90
2023-11-01T18:28:23.090Z,5.53
2023-11-01T18:30:51.589Z,7.05
2023-11-01T18:33:20.485Z,6.90
2023-11-01T18:35:49.108Z,8.63
2023-11-01T18:38:48.569Z,7.80
2023-11-01T18:41:17.974Z,11.32
2023-11-01T18:43:46.616Z,23.35
2023-11-01T18:46:15.155Z,14.93
2023-11-01T18:48:44.916Z,11.55
2023-11-01T18:51:36.382Z,13.50
2023-11-01T18:54:05.093Z,13.23
2023-11-01T18:56:42.368Z,9.73
2023-11-01T18:59:13.231Z,17.63
2023-11-01T19:01:41.881Z,12.80
2023-11-01T19:04:12.932Z,11.02
2023-11-01T19:06:42.925Z,14.43
2023-11-01T19:09:11.659Z,18.90
2023-11-01T19:11:40.201Z,33.75
2023-11-01T19:14:08.785Z,40.67
2023-11-01T19:16:37.316Z,49.90
2023-11-01T19:19:05.996Z,44.33
2023-11-01T19:21:34.518Z,36.63
2023-11-01T19:24:03.117Z,50.60
2023-11-01T19:26:31.530Z,45.88
2023-11-01T19:28:59.981Z,25.58
2023-11-01T19:31:28.464Z,24.77
2023-11-01T19:33:57.009Z,19.52
2023-11-01T19:36:25.562Z,18.35
2023-11-01T19:38:53.892Z,14.23
2023-11-01T19:41:22.671Z,18.25
2023-11-01T19:43:51.410Z,32.35
2023-11-01T19:46:19.940Z,57.63
2023-11-01T19:48:48.457Z,37.88
2023-11-01T19:51:17.163Z,32.10
2023-11-01T19:53:45.605Z,129.77
2023-11-01T19:56:14.318Z,221.98
2023-11-01T19:58:43.017Z,229.40
2023-11-01T20:01:11.507Z,239.80
2023-11-01T20:03:40.088Z,176.88
2023-11-01T20:06:08.890Z,88.82
2023-11-01T20:08:37.376Z,66.13
2023-11-01T20:11:06.475Z,97.90
2023-11-01T20:13:34.829Z,90.82
2023-11-01T20:16:03.570Z,149.88
2023-11-01T20:18:32.070Z,225.60
2023-11-01T20:21:00.389Z,172.13
2023-11-01T20:23:28.909Z,185.07
2023-11-01T20:25:57.451Z,179.75
2023-11-01T20:28:26.684Z,149.63
2023-11-01T20:30:55.045Z,141.38
2023-11-01T20:33:23.657Z,150.73
2023-11-01T20:35:52.374Z,150.70
2023-11-01T20:38:20.778Z,173.38
2023-11-01T20:40:49.148Z,206.30
2023-11-01T20:43:17.610Z,229.98
2023-11-01T20:45:48.384Z,157.55
2023-11-01T20:48:17.243Z,114.18
2023-11-01T20:50:45.924Z,65.75
2023-11-01T20:53:14.603Z,32.63
2023-11-01T20:55:43.004Z,19.35
2023-11-01T20:58:11.621Z,26.65
2023-11-01T21:00:40.036Z,35.65
2023-11-01T21:03:09.192Z,33.47
2023-11-01T21:05:37.891Z,43.00
2023-11-01T21:08:07.003Z,41.45
2023-11-01T21:10:35.637Z,33.55
2023-11-01T21:13:04.463Z,34.22
2023-11-01T21:15:33.143Z,34.90
2023-11-01T21:18:02.524Z,34.78
2023-11-01T21:20:31.405Z,32.75
2023-11-01T21:22:59.901Z,43.88
2023-11-01T21:25:28.762Z,43.15
2023-11-01T21:27:57.690Z,44.90
2023-11-01T21:30:26.483Z,45.63
2023-11-01T21:32:55.056Z,49.20
2023-11-01T21:35:31.679Z,48.13
2023-11-01T21:38:07.561Z,52.58
2023-11-01T21:40:36.413Z,54.20
2023-11-01T21:43:06.022Z,61.50
2023-11-01T21:45:52.008Z,59.45
2023-11-01T21:48:29.641Z,53.42
2023-11-01T21:51:04.141Z,46.92
2023-11-01T21:53:34.574Z,51.10
2023-11-01T21:56:03.116Z,49.10
2023-11-01T21:58:31.421Z,50.58
2023-11-01T22:01:01.608Z,46.75
2023-11-01T22:03:46.625Z,46.97
2023-11-01T22:06:18.157Z,45.85
2023-11-01T22:09:06.466Z,41.63
2023-11-01T22:11:48.284Z,41.85
2023-11-01T22:14:32.048Z,38.20
2023-11-01T22:17:05.101Z,40.72
2023-11-01T22:19:38.521Z,41.72
2023-11-01T22:22:08.917Z,40.22
2023-11-01T22:24:42.567Z,39.95
2023-11-01T22:27:13.219Z,41.30
2023-11-01T22:29:47.853Z,42.20
2023-11-01T22:32:19.382Z,43.65
2023-11-01T22:34:49.000Z,41.90
2023-11-01T22:37:28.562Z,41.72
2023-11-01T22:40:02.513Z,46.10
2023-11-01T22:42:32.760Z,48.58
2023-11-01T22:45:03.806Z,46.88
2023-11-01T22:47:33.727Z,49.58
2023-11-01T22:50:02.423Z,48.08
2023-11-01T22:52:30.837Z,48.92
2023-11-01T22:54:59.205Z,48.67
2023-11-01T22:59:51.395Z,53.22
2023-11-01T23:02:19.972Z,47.38
2023-11-01T23:04:48.404Z,53.95
2023-11-01T23:07:17.009Z,54.40
2023-11-01T23:09:45.554Z,55.38
2023-11-01T23:12:14.021Z,53.00
2023-11-01T23:14:42.474Z,53.17
2023-11-01T23:17:11.183Z,57.30
2023-11-01T23:19:39.580Z,54.72
2023-11-01T23:22:08.142Z,60.40
2023-11-01T23:24:36.852Z,66.45
2023-11-01T23:27:06.378Z,64.90
2023-11-01T23:29:37.878Z,58.92
2023-11-01T23:32:13.135Z,62.10
2023-11-01T23:34:48.198Z,60.03
2023-11-01T23:37:19.682Z,58.63
2023-11-01T23:39:48.555Z,59.10
2023-11-01T23:42:18.540Z,59.92
2023-11-01T23:44:47.484Z,59.53
2023-11-01T23:47:25.298Z,58.28
2023-11-01T23:50:00.574Z,55.92
2023-11-01T23:52:31.184Z,53.72
2023-11-01T23:55:00.499Z,56.72
2023-11-01T23:57:32.005Z,57.45
